sensor_id;sensor_type;location;lat;lon;timestamp;pressure;altitude;pressure_sealevel;temperature;humidity
11808;BME280;5961;42.640;23.380;2023-01-26T00:01:13;94459.22;;;1.13;92.35
11808;BME280;5961;42.640;23.380;2023-01-26T00:03:40;94452.41;;;1.12;92.36
11808;BME280;5961;42.640;23.380;2023-01-26T00:06:09;94457.09;;;1.15;91.92
11808;BME280;5961;42.640;23.380;2023-01-26T00:08:37;94431.47;;;0.97;92.07
11808;BME280;5961;42.640;23.380;2023-01-26T00:11:05;94432.50;;;1.06;91.63
11808;BME280;5961;42.640;23.380;2023-01-26T00:13:32;94446.63;;;1.15;91.81
11808;BME280;5961;42.640;23.380;2023-01-26T00:16:01;94383.06;;;0.64;91.70
11808;BME280;5961;42.640;23.380;2023-01-26T00:18:29;94465.75;;;1.21;91.78
11808;BME280;5961;42.640;23.380;2023-01-26T00:20:56;94466.28;;;1.18;91.52
11808;BME280;5961;42.640;23.380;2023-01-26T00:23:23;94469.69;;;1.23;91.29
11808;BME280;5961;42.640;23.380;2023-01-26T00:25:50;94461.31;;;1.16;91.41
11808;BME280;5961;42.640;23.380;2023-01-26T00:28:16;94464.19;;;1.20;91.15
11808;BME280;5961;42.640;23.380;2023-01-26T00:30:43;94453.19;;;1.13;90.82
11808;BME280;5961;42.640;23.380;2023-01-26T00:33:11;94437.22;;;1.09;90.99
11808;BME280;5961;42.640;23.380;2023-01-26T00:35:38;94441.94;;;1.12;91.04
11808;BME280;5961;42.640;23.380;2023-01-26T00:38:09;94436.69;;;1.12;91.22
11808;BME280;5961;42.640;23.380;2023-01-26T00:40:36;94416.28;;;0.94;90.63
11808;BME280;5961;42.640;23.380;2023-01-26T00:43:02;94403.22;;;0.94;91.05
11808;BME280;5961;42.640;23.380;2023-01-26T00:45:29;94428.59;;;1.08;91.18
11808;BME280;5961;42.640;23.380;2023-01-26T00:47:56;94426.50;;;1.00;91.05
11808;BME280;5961;42.640;23.380;2023-01-26T00:50:26;94381.25;;;0.75;90.76
11808;BME280;5961;42.640;23.380;2023-01-26T00:52:52;94416.81;;;1.01;90.99
11808;BME280;5961;42.640;23.380;2023-01-26T00:55:19;94362.94;;;0.65;90.60
11808;BME280;5961;42.640;23.380;2023-01-26T00:57:46;94418.91;;;1.09;91.03
11808;BME280;5961;42.640;23.380;2023-01-26T01:00:15;94436.94;;;1.16;90.53
11808;BME280;5961;42.640;23.380;2023-01-26T01:02:42;94407.13;;;1.17;89.88
11808;BME280;5961;42.640;23.380;2023-01-26T01:05:09;94411.03;;;1.19;89.65
11808;BME280;5961;42.640;23.380;2023-01-26T01:07:37;94407.63;;;1.19;89.31
11808;BME280;5961;42.640;23.380;2023-01-26T01:10:04;94405.03;;;1.08;89.08
11808;BME280;5961;42.640;23.380;2023-01-26T01:12:32;94402.66;;;1.17;88.84
11808;BME280;5961;42.640;23.380;2023-01-26T01:14:59;94406.34;;;1.16;88.96
11808;BME280;5961;42.640;23.380;2023-01-26T01:17:26;94400.03;;;1.12;89.04
11808;BME280;5961;42.640;23.380;2023-01-26T01:19:53;94354.28;;;0.79;88.72
11808;BME280;5961;42.640;23.380;2023-01-26T01:22:20;94397.44;;;1.12;88.73
11808;BME280;5961;42.640;23.380;2023-01-26T01:25:02;94405.81;;;1.09;88.81
11808;BME280;5961;42.640;23.380;2023-01-26T01:27:29;94349.84;;;0.80;88.71
11808;BME280;5961;42.640;23.380;2023-01-26T01:29:56;94331.03;;;0.63;88.25
11808;BME280;5961;42.640;23.380;2023-01-26T01:32:23;94398.50;;;1.11;88.35
11808;BME280;5961;42.640;23.380;2023-01-26T01:34:49;94392.72;;;1.04;88.44
11808;BME280;5961;42.640;23.380;2023-01-26T01:37:16;94403.19;;;1.09;88.29
11808;BME280;5961;42.640;23.380;2023-01-26T01:39:43;94383.31;;;0.98;88.35
11808;BME280;5961;42.640;23.380;2023-01-26T01:42:11;94394.06;;;1.01;87.80
11808;BME280;5961;42.640;23.380;2023-01-26T01:44:38;94393.00;;;1.02;88.05
11808;BME280;5961;42.640;23.380;2023-01-26T01:47:07;94367.66;;;0.68;87.36
11808;BME280;5961;42.640;23.380;2023-01-26T01:49:39;94389.59;;;0.97;87.86
11808;BME280;5961;42.640;23.380;2023-01-26T01:52:10;94380.69;;;1.03;87.73
11808;BME280;5961;42.640;23.380;2023-01-26T01:54:40;94390.13;;;0.99;87.54
11808;BME280;5961;42.640;23.380;2023-01-26T01:57:12;94336.28;;;0.63;87.61
11808;BME280;5961;42.640;23.380;2023-01-26T01:59:43;94308.56;;;0.16;87.55
11808;BME280;5961;42.640;23.380;2023-01-26T02:02:12;94324.50;;;0.60;87.85
11808;BME280;5961;42.640;23.380;2023-01-26T02:04:40;94383.84;;;1.00;87.74
11808;BME280;5961;42.640;23.380;2023-01-26T02:07:09;94380.19;;;0.96;87.98
11808;BME280;5961;42.640;23.380;2023-01-26T02:09:37;94369.97;;;0.94;87.74
11808;BME280;5961;42.640;23.380;2023-01-26T02:12:26;94374.44;;;0.99;88.00
11808;BME280;5961;42.640;23.380;2023-01-26T02:14:56;94372.84;;;0.98;88.03
11808;BME280;5961;42.640;23.380;2023-01-26T02:17:23;94371.28;;;0.97;88.25
11808;BME280;5961;42.640;23.380;2023-01-26T02:19:59;94356.91;;;0.94;88.57
11808;BME280;5961;42.640;23.380;2023-01-26T02:22:36;94358.47;;;0.95;88.60
11808;BME280;5961;42.640;23.380;2023-01-26T02:25:11;94341.72;;;0.91;88.56
11808;BME280;5961;42.640;23.380;2023-01-26T02:27:44;94337.81;;;0.89;88.63
11808;BME280;5961;42.640;23.380;2023-01-26T02:30:11;94302.25;;;0.73;88.21
11808;BME280;5961;42.640;23.380;2023-01-26T02:32:40;94309.56;;;0.81;88.33
11808;BME280;5961;42.640;23.380;2023-01-26T02:35:07;94335.22;;;0.84;88.27
11808;BME280;5961;42.640;23.380;2023-01-26T02:37:34;94337.56;;;0.90;88.67
11808;BME280;5961;42.640;23.380;2023-01-26T02:40:05;94286.59;;;0.63;88.54
11808;BME280;5961;42.640;23.380;2023-01-26T02:42:34;94327.06;;;0.95;88.96
11808;BME280;5961;42.640;23.380;2023-01-26T02:45:05;94321.59;;;0.87;88.74
11808;BME280;5961;42.640;23.380;2023-01-26T02:47:32;94326.81;;;0.92;88.71
11808;BME280;5961;42.640;23.380;2023-01-26T02:49:58;94329.94;;;0.94;88.50
11808;BME280;5961;42.640;23.380;2023-01-26T02:52:26;94289.44;;;0.76;88.55
11808;BME280;5961;42.640;23.380;2023-01-26T02:54:55;94287.59;;;0.67;88.96
11808;BME280;5961;42.640;23.380;2023-01-26T02:57:39;94301.69;;;0.86;88.61
11808;BME280;5961;42.640;23.380;2023-01-26T03:00:09;94304.84;;;0.88;89.01
11808;BME280;5961;42.640;23.380;2023-01-26T03:02:37;94295.69;;;0.85;88.38
11808;BME280;5961;42.640;23.380;2023-01-26T03:05:04;94277.16;;;0.67;88.34
11808;BME280;5961;42.640;23.380;2023-01-26T03:07:31;94298.81;;;0.82;88.63
11808;BME280;5961;42.640;23.380;2023-01-26T03:09:58;94304.06;;;0.82;88.43
11808;BME280;5961;42.640;23.380;2023-01-26T03:12:25;94300.66;;;0.82;88.21
11808;BME280;5961;42.640;23.380;2023-01-26T03:14:52;94292.81;;;0.82;88.29
11808;BME280;5961;42.640;23.380;2023-01-26T03:17:34;94277.16;;;0.72;88.01
11808;BME280;5961;42.640;23.380;2023-01-26T03:20:01;94280.25;;;0.79;88.19
11808;BME280;5961;42.640;23.380;2023-01-26T03:22:45;94279.50;;;0.68;88.42
11808;BME280;5961;42.640;23.380;2023-01-26T03:25:29;94254.91;;;0.64;88.55
11808;BME280;5961;42.640;23.380;2023-01-26T03:28:13;94248.41;;;0.62;88.54
11808;BME280;5961;42.640;23.380;2023-01-26T03:30:40;94253.63;;;0.62;88.44
11808;BME280;5961;42.640;23.380;2023-01-26T03:33:08;94270.63;;;0.64;88.43
11808;BME280;5961;42.640;23.380;2023-01-26T03:35:35;94257.00;;;0.67;88.50
11808;BME280;5961;42.640;23.380;2023-01-26T03:38:03;94257.00;;;0.67;88.52
11808;BME280;5961;42.640;23.380;2023-01-26T03:40:29;94251.81;;;0.57;88.30
11808;BME280;5961;42.640;23.380;2023-01-26T03:43:14;94264.59;;;0.69;88.04
11808;BME280;5961;42.640;23.380;2023-01-26T03:46:01;94258.59;;;0.68;88.04
11808;BME280;5961;42.640;23.380;2023-01-26T03:48:46;94258.84;;;0.62;88.53
11808;BME280;5961;42.640;23.380;2023-01-26T03:51:31;94224.91;;;0.41;88.60
11808;BME280;5961;42.640;23.380;2023-01-26T03:54:15;94249.19;;;0.62;88.63
11808;BME280;5961;42.640;23.380;2023-01-26T03:56:59;94256.75;;;0.64;88.80
11808;BME280;5961;42.640;23.380;2023-01-26T03:59:26;94248.63;;;0.70;88.94
11808;BME280;5961;42.640;23.380;2023-01-26T04:02:03;94242.63;;;0.75;89.76
11808;BME280;5961;42.640;23.380;2023-01-26T04:04:49;94212.31;;;0.59;89.92
11808;BME280;5961;42.640;23.380;2023-01-26T04:07:33;94230.56;;;0.84;89.50
11808;BME280;5961;42.640;23.380;2023-01-26T04:10:18;94226.88;;;0.85;89.60
11808;BME280;5961;42.640;23.380;2023-01-26T04:12:45;94230.03;;;0.82;89.30
11808;BME280;5961;42.640;23.380;2023-01-26T04:15:29;94226.63;;;0.86;89.22
11808;BME280;5961;42.640;23.380;2023-01-26T04:18:13;94230.03;;;0.82;88.90
11808;BME280;5961;42.640;23.380;2023-01-26T04:21:01;94222.72;;;0.74;87.97
11808;BME280;5961;42.640;23.380;2023-01-26T04:23:45;94217.00;;;0.67;88.87
11808;BME280;5961;42.640;23.380;2023-01-26T04:26:12;94207.84;;;0.69;89.12
11808;BME280;5961;42.640;23.380;2023-01-26T04:28:39;94213.31;;;0.73;89.28
11808;BME280;5961;42.640;23.380;2023-01-26T04:31:06;94204.16;;;0.70;89.13
11808;BME280;5961;42.640;23.380;2023-01-26T04:33:33;94190.88;;;0.51;89.31
11808;BME280;5961;42.640;23.380;2023-01-26T04:36:03;94203.16;;;0.66;88.94
11808;BME280;5961;42.640;23.380;2023-01-26T04:38:30;94203.91;;;0.67;88.83
11808;BME280;5961;42.640;23.380;2023-01-26T04:40:57;94200.00;;;0.69;89.23
11808;BME280;5961;42.640;23.380;2023-01-26T04:43:24;94133.44;;;0.21;89.08
11808;BME280;5961;42.640;23.380;2023-01-26T04:45:57;94203.59;;;0.83;89.12
11808;BME280;5961;42.640;23.380;2023-01-26T04:48:24;94202.31;;;0.76;88.97
11808;BME280;5961;42.640;23.380;2023-01-26T04:50:54;94192.91;;;0.75;89.12
11808;BME280;5961;42.640;23.380;2023-01-26T04:53:23;94200.72;;;0.85;88.71
11808;BME280;5961;42.640;23.380;2023-01-26T04:55:50;94163.13;;;0.66;88.55
11808;BME280;5961;42.640;23.380;2023-01-26T04:58:17;94202.78;;;0.93;88.27
11808;BME280;5961;42.640;23.380;2023-01-26T05:00:49;94203.81;;;0.97;88.26
11808;BME280;5961;42.640;23.380;2023-01-26T05:03:16;94213.50;;;0.91;87.77
11808;BME280;5961;42.640;23.380;2023-01-26T05:05:43;94177.72;;;0.77;87.48
11808;BME280;5961;42.640;23.380;2023-01-26T05:08:10;94221.59;;;1.05;87.42
11808;BME280;5961;42.640;23.380;2023-01-26T05:10:38;94185.81;;;0.85;87.09
11808;BME280;5961;42.640;23.380;2023-01-26T05:13:05;94178.72;;;0.91;87.23
11808;BME280;5961;42.640;23.380;2023-01-26T05:15:32;94205.06;;;1.15;87.34
11808;BME280;5961;42.640;23.380;2023-01-26T05:17:59;94206.91;;;1.09;86.92
11808;BME280;5961;42.640;23.380;2023-01-26T05:20:25;94161.47;;;0.90;86.48
11808;BME280;5961;42.640;23.380;2023-01-26T05:22:52;94195.88;;;1.12;86.43
11808;BME280;5961;42.640;23.380;2023-01-26T05:25:19;94193.28;;;1.12;86.40
11808;BME280;5961;42.640;23.380;2023-01-26T05:27:47;94197.44;;;1.18;86.46
11808;BME280;5961;42.640;23.380;2023-01-26T05:30:14;94188.28;;;1.21;86.35
11808;BME280;5961;42.640;23.380;2023-01-26T05:32:41;94190.63;;;1.22;85.86
11808;BME280;5961;42.640;23.380;2023-01-26T05:35:08;94196.88;;;1.26;85.56
11808;BME280;5961;42.640;23.380;2023-01-26T05:37:35;94190.63;;;1.22;86.11
11808;BME280;5961;42.640;23.380;2023-01-26T05:40:03;94178.63;;;1.11;86.27
11808;BME280;5961;42.640;23.380;2023-01-26T05:42:29;94191.41;;;1.23;86.22
11808;BME280;5961;42.640;23.380;2023-01-26T05:44:58;94133.50;;;0.80;86.42
11808;BME280;5961;42.640;23.380;2023-01-26T05:47:24;94149.94;;;0.96;86.45
11808;BME280;5961;42.640;23.380;2023-01-26T05:49:51;94186.97;;;1.18;86.34
11808;BME280;5961;42.640;23.380;2023-01-26T05:52:19;94199.75;;;1.25;86.02
11808;BME280;5961;42.640;23.380;2023-01-26T05:54:46;94193.19;;;1.27;85.98
11808;BME280;5961;42.640;23.380;2023-01-26T05:57:13;94179.38;;;1.17;85.69
11808;BME280;5961;42.640;23.380;2023-01-26T05:59:41;94198.44;;;1.27;85.54
11808;BME280;5961;42.640;23.380;2023-01-26T06:02:10;94172.56;;;1.21;85.69
11808;BME280;5961;42.640;23.380;2023-01-26T06:04:37;94191.66;;;1.26;85.04
11808;BME280;5961;42.640;23.380;2023-01-26T06:07:04;94184.63;;;1.17;86.53
11808;BME280;5961;42.640;23.380;2023-01-26T06:09:31;94160.34;;;1.01;85.54
11808;BME280;5961;42.640;23.380;2023-01-26T06:11:57;94172.63;;;1.10;85.50
11808;BME280;5961;42.640;23.380;2023-01-26T06:14:24;94189.34;;;1.15;85.63
11808;BME280;5961;42.640;23.380;2023-01-26T06:16:51;94122.31;;;0.70;85.50
11808;BME280;5961;42.640;23.380;2023-01-26T06:19:20;94180.69;;;1.19;85.75
11808;BME280;5961;42.640;23.380;2023-01-26T06:21:47;94175.97;;;1.16;85.55
11808;BME280;5961;42.640;23.380;2023-01-26T06:24:13;94169.72;;;1.12;85.80
11808;BME280;5961;42.640;23.380;2023-01-26T06:26:40;94184.34;;;1.18;86.36
11808;BME280;5961;42.640;23.380;2023-01-26T06:29:07;94184.13;;;1.15;86.23
11808;BME280;5961;42.640;23.380;2023-01-26T06:31:35;94173.94;;;1.08;86.00
11808;BME280;5961;42.640;23.380;2023-01-26T06:34:02;94161.88;;;1.12;85.91
11808;BME280;5961;42.640;23.380;2023-01-26T06:39:01;94170.22;;;1.19;85.62
11808;BME280;5961;42.640;23.380;2023-01-26T06:41:28;94166.81;;;1.19;85.68
11808;BME280;5961;42.640;23.380;2023-01-26T06:43:55;94160.28;;;1.16;85.61
11808;BME280;5961;42.640;23.380;2023-01-26T06:46:22;94162.09;;;1.21;85.65
11808;BME280;5961;42.640;23.380;2023-01-26T06:48:48;94158.72;;;1.15;85.87
11808;BME280;5961;42.640;23.380;2023-01-26T06:51:52;94170.72;;;1.21;86.12
11808;BME280;5961;42.640;23.380;2023-01-26T06:54:21;94171.25;;;1.23;86.07
11808;BME280;5961;42.640;23.380;2023-01-26T06:56:48;94152.44;;;1.16;86.01
11808;BME280;5961;42.640;23.380;2023-01-26T06:59:15;94157.88;;;1.25;86.31
11808;BME280;5961;42.640;23.380;2023-01-26T07:01:44;94166.47;;;1.30;86.21
11808;BME280;5961;42.640;23.380;2023-01-26T07:04:12;94184.28;;;1.28;86.28
11808;BME280;5961;42.640;23.380;2023-01-26T07:06:38;94148.72;;;1.22;85.80
11808;BME280;5961;42.640;23.380;2023-01-26T07:09:05;94144.53;;;1.26;85.91
11808;BME280;5961;42.640;23.380;2023-01-26T07:11:33;94017.31;;;0.42;86.60
11808;BME280;5961;42.640;23.380;2023-01-26T07:14:00;94146.56;;;1.34;86.47
11808;BME280;5961;42.640;23.380;2023-01-26T07:16:27;94123.63;;;1.16;86.72
11808;BME280;5961;42.640;23.380;2023-01-26T07:18:53;94132.00;;;1.18;86.18
11808;BME280;5961;42.640;23.380;2023-01-26T07:21:20;94148.38;;;1.34;86.73
11808;BME280;5961;42.640;23.380;2023-01-26T07:23:48;94150.72;;;1.40;86.48
11808;BME280;5961;42.640;23.380;2023-01-26T07:26:15;94113.72;;;1.13;86.21
11808;BME280;5961;42.640;23.380;2023-01-26T07:28:43;94140.28;;;1.30;86.47
11808;BME280;5961;42.640;23.380;2023-01-26T07:31:11;94149.38;;;1.43;86.48
11808;BME280;5961;42.640;23.380;2023-01-26T07:33:38;94135.31;;;1.34;86.28
11808;BME280;5961;42.640;23.380;2023-01-26T07:36:05;94146.47;;;1.49;86.14
11808;BME280;5961;42.640;23.380;2023-01-26T07:38:32;94105.25;;;1.26;85.61
11808;BME280;5961;42.640;23.380;2023-01-26T07:41:04;94136.78;;;1.50;85.37
11808;BME280;5961;42.640;23.380;2023-01-26T07:43:32;94125.63;;;1.34;86.25
11808;BME280;5961;42.640;23.380;2023-01-26T07:46:00;94137.38;;;1.42;86.35
11808;BME280;5961;42.640;23.380;2023-01-26T07:48:27;94146.81;;;1.38;86.31
11808;BME280;5961;42.640;23.380;2023-01-26T07:50:57;94140.78;;;1.37;86.38
11808;BME280;5961;42.640;23.380;2023-01-26T07:53:26;94134.75;;;1.37;86.54
11808;BME280;5961;42.640;23.380;2023-01-26T07:55:54;94136.59;;;1.36;86.75
11808;BME280;5961;42.640;23.380;2023-01-26T07:58:21;94124.09;;;1.28;86.55
11808;BME280;5961;42.640;23.380;2023-01-26T08:00:48;94134.22;;;1.40;86.52
11808;BME280;5961;42.640;23.380;2023-01-26T08:03:16;94133.94;;;1.41;86.49
11808;BME280;5961;42.640;23.380;2023-01-26T08:05:43;94113.03;;;1.36;86.48
11808;BME280;5961;42.640;23.380;2023-01-26T08:08:11;94032.78;;;0.83;86.33
11808;BME280;5961;42.640;23.380;2023-01-26T08:10:38;94118.25;;;1.36;86.39
11808;BME280;5961;42.640;23.380;2023-01-26T08:13:05;94122.41;;;1.42;86.59
11808;BME280;5961;42.640;23.380;2023-01-26T08:15:31;94116.06;;;1.48;86.78
11808;BME280;5961;42.640;23.380;2023-01-26T08:17:58;94111.38;;;1.50;86.97
11808;BME280;5961;42.640;23.380;2023-01-26T08:20:29;94107.72;;;1.46;86.86
11808;BME280;5961;42.640;23.380;2023-01-26T08:22:56;94105.34;;;1.50;86.16
11808;BME280;5961;42.640;23.380;2023-01-26T08:25:22;94113.94;;;1.55;86.11
11808;BME280;5961;42.640;23.380;2023-01-26T08:27:49;94064.91;;;1.27;85.84
11808;BME280;5961;42.640;23.380;2023-01-26T08:30:16;94106.63;;;1.52;85.80
11808;BME280;5961;42.640;23.380;2023-01-26T08:32:43;94107.38;;;1.58;85.74
11808;BME280;5961;42.640;23.380;2023-01-26T08:35:10;94106.81;;;1.61;85.72
11808;BME280;5961;42.640;23.380;2023-01-26T08:37:38;94107.59;;;1.61;85.72
11808;BME280;5961;42.640;23.380;2023-01-26T08:40:05;94102.09;;;1.63;85.59
11808;BME280;5961;42.640;23.380;2023-01-26T08:42:33;94091.16;;;1.56;85.53
11808;BME280;5961;42.640;23.380;2023-01-26T08:45:00;94099.94;;;1.70;85.51
11808;BME280;5961;42.640;23.380;2023-01-26T08:47:26;94097.56;;;1.74;85.06
11808;BME280;5961;42.640;23.380;2023-01-26T08:49:53;94100.66;;;1.76;84.12
11808;BME280;5961;42.640;23.380;2023-01-26T08:52:20;94110.69;;;1.69;83.69
11808;BME280;5961;42.640;23.380;2023-01-26T08:54:48;94110.16;;;1.72;83.94
11808;BME280;5961;42.640;23.380;2023-01-26T08:57:15;94110.16;;;1.72;83.49
11808;BME280;5961;42.640;23.380;2023-01-26T08:59:41;94112.03;;;1.66;83.32
11808;BME280;5961;42.640;23.380;2023-01-26T09:02:09;94109.38;;;1.71;83.30
11808;BME280;5961;42.640;23.380;2023-01-26T09:04:35;94106.56;;;1.62;83.26
11808;BME280;5961;42.640;23.380;2023-01-26T09:09:31;94098.69;;;1.62;83.44
11808;BME280;5961;42.640;23.380;2023-01-26T09:11:59;94104.69;;;1.68;83.82
11808;BME280;5961;42.640;23.380;2023-01-26T09:14:26;94098.09;;;1.71;83.57
11808;BME280;5961;42.640;23.380;2023-01-26T09:16:53;94090.78;;;1.67;83.71
11808;BME280;5961;42.640;23.380;2023-01-26T09:19:20;94098.03;;;1.76;83.19
11808;BME280;5961;42.640;23.380;2023-01-26T09:21:51;94087.31;;;1.77;83.69
11808;BME280;5961;42.640;23.380;2023-01-26T09:26:47;94042.44;;;1.55;83.68
11808;BME280;5961;42.640;23.380;2023-01-26T09:29:16;94087.78;;;1.84;83.68
11808;BME280;5961;42.640;23.380;2023-01-26T09:31:42;94075.41;;;1.90;83.90
11808;BME280;5961;42.640;23.380;2023-01-26T09:34:09;94071.72;;;1.91;83.23
11808;BME280;5961;42.640;23.380;2023-01-26T09:36:36;94065.91;;;1.94;83.21
11808;BME280;5961;42.640;23.380;2023-01-26T09:39:02;94057.50;;;1.97;83.24
11808;BME280;5961;42.640;23.380;2023-01-26T09:41:44;94071.69;;;1.96;83.45
11808;BME280;5961;42.640;23.380;2023-01-26T09:44:18;94077.34;;;2.03;83.14
11808;BME280;5961;42.640;23.380;2023-01-26T09:46:55;94024.06;;;1.60;82.68
11808;BME280;5961;42.640;23.380;2023-01-26T09:49:29;94060.66;;;1.94;83.36
11808;BME280;5961;42.640;23.380;2023-01-26T09:52:05;94040.72;;;1.98;83.64
11808;BME280;5961;42.640;23.380;2023-01-26T09:54:37;94051.69;;;2.00;82.92
11808;BME280;5961;42.640;23.380;2023-01-26T09:57:11;94046.66;;;2.08;83.43
11808;BME280;5961;42.640;23.380;2023-01-26T09:59:44;94044.06;;;2.03;83.13
11808;BME280;5961;42.640;23.380;2023-01-26T10:02:22;94045.88;;;2.08;83.14
11808;BME280;5961;42.640;23.380;2023-01-26T10:04:56;94020.63;;;1.88;83.10
11808;BME280;5961;42.640;23.380;2023-01-26T10:07:24;94044.03;;;2.08;82.43
11808;BME280;5961;42.640;23.380;2023-01-26T10:09:52;94040.06;;;2.11;82.61
11808;BME280;5961;42.640;23.380;2023-01-26T10:12:23;94039.00;;;2.12;82.87
11808;BME280;5961;42.640;23.380;2023-01-26T10:14:55;94045.25;;;2.16;83.00
11808;BME280;5961;42.640;23.380;2023-01-26T10:17:26;94034.69;;;2.21;83.23
11808;BME280;5961;42.640;23.380;2023-01-26T10:20:00;94005.47;;;2.09;82.80
11808;BME280;5961;42.640;23.380;2023-01-26T10:22:33;94012.41;;;2.24;82.36
11808;BME280;5961;42.640;23.380;2023-01-26T10:25:11;94016.72;;;2.33;82.51
11808;BME280;5961;42.640;23.380;2023-01-26T10:27:39;94002.56;;;2.34;82.50
11808;BME280;5961;42.640;23.380;2023-01-26T10:30:12;93989.13;;;2.17;81.86
11808;BME280;5961;42.640;23.380;2023-01-26T10:32:41;93990.31;;;2.30;82.32
11808;BME280;5961;42.640;23.380;2023-01-26T10:35:15;93975.72;;;2.18;81.82
11808;BME280;5961;42.640;23.380;2023-01-26T10:37:42;93970.78;;;2.17;82.08
11808;BME280;5961;42.640;23.380;2023-01-26T10:40:09;93978.59;;;2.22;82.03
11808;BME280;5961;42.640;23.380;2023-01-26T10:42:37;93965.13;;;2.29;81.98
11808;BME280;5961;42.640;23.380;2023-01-26T10:45:06;93950.78;;;2.21;82.17
11808;BME280;5961;42.640;23.380;2023-01-26T10:48:01;93946.00;;;2.28;82.74
11808;BME280;5961;42.640;23.380;2023-01-26T10:50:28;93944.38;;;2.32;82.24
11808;BME280;5961;42.640;23.380;2023-01-26T10:52:57;93834.88;;;1.68;81.66
11808;BME280;5961;42.640;23.380;2023-01-26T10:55:24;93939.75;;;2.43;81.94
11808;BME280;5961;42.640;23.380;2023-01-26T10:57:51;93920.13;;;2.40;81.56
11808;BME280;5961;42.640;23.380;2023-01-26T11:00:25;93925.50;;;2.49;81.39
11808;BME280;5961;42.640;23.380;2023-01-26T11:02:57;93917.38;;;2.50;81.63
11808;BME280;5961;42.640;23.380;2023-01-26T11:05:28;93908.84;;;2.58;81.08
11808;BME280;5961;42.640;23.380;2023-01-26T11:07:55;93916.72;;;2.58;81.04
11808;BME280;5961;42.640;23.380;2023-01-26T11:10:28;93908.06;;;2.58;80.80
11808;BME280;5961;42.640;23.380;2023-01-26T11:13:12;93905.44;;;2.58;81.50
11808;BME280;5961;42.640;23.380;2023-01-26T11:15:42;93861.09;;;2.24;81.75
11808;BME280;5961;42.640;23.380;2023-01-26T11:18:21;93875.91;;;2.34;81.33
11808;BME280;5961;42.640;23.380;2023-01-26T11:20:55;93891.84;;;2.56;81.19
11808;BME280;5961;42.640;23.380;2023-01-26T11:23:32;93883.09;;;2.60;82.24
11808;BME280;5961;42.640;23.380;2023-01-26T11:26:15;93868.03;;;2.52;81.58
11808;BME280;5961;42.640;23.380;2023-01-26T11:28:55;93857.94;;;2.59;82.07
11808;BME280;5961;42.640;23.380;2023-01-26T11:31:33;93854.63;;;2.54;81.93
11808;BME280;5961;42.640;23.380;2023-01-26T11:34:13;93863.78;;;2.56;81.83
11808;BME280;5961;42.640;23.380;2023-01-26T11:36:53;93846.47;;;2.55;82.50
11808;BME280;5961;42.640;23.380;2023-01-26T11:39:25;93850.72;;;2.51;83.32
11808;BME280;5961;42.640;23.380;2023-01-26T11:42:04;93831.72;;;2.59;82.84
11808;BME280;5961;42.640;23.380;2023-01-26T11:47:49;93834.22;;;2.51;82.69
11808;BME280;5961;42.640;23.380;2023-01-26T11:50:29;93832.44;;;2.46;82.67
11808;BME280;5961;42.640;23.380;2023-01-26T11:53:23;93839.25;;;2.47;83.50
11808;BME280;5961;42.640;23.380;2023-01-26T11:56:01;93851.22;;;2.53;83.05
11808;BME280;5961;42.640;23.380;2023-01-26T11:58:34;93851.81;;;2.50;83.28
11808;BME280;5961;42.640;23.380;2023-01-26T12:01:06;93816.72;;;2.28;83.89
11808;BME280;5961;42.640;23.380;2023-01-26T12:03:38;93841.88;;;2.47;84.03
11808;BME280;5961;42.640;23.380;2023-01-26T12:06:15;93820.56;;;2.35;84.11
11808;BME280;5961;42.640;23.380;2023-01-26T12:08:49;93826.50;;;2.41;84.10
11808;BME280;5961;42.640;23.380;2023-01-26T12:11:21;93824.44;;;2.38;83.98
11808;BME280;5961;42.640;23.380;2023-01-26T12:14:11;93826.03;;;2.39;84.20
11808;BME280;5961;42.640;23.380;2023-01-26T12:16:51;93817.94;;;2.35;84.67
11808;BME280;5961;42.640;23.380;2023-01-26T12:19:31;93805.06;;;2.20;85.12
11808;BME280;5961;42.640;23.380;2023-01-26T12:22:04;93803.41;;;2.24;85.84
11808;BME280;5961;42.640;23.380;2023-01-26T12:24:36;93786.75;;;2.15;85.75
11808;BME280;5961;42.640;23.380;2023-01-26T12:27:12;93780.38;;;2.21;85.61
11808;BME280;5961;42.640;23.380;2023-01-26T12:29:45;93773.88;;;2.18;85.64
11808;BME280;5961;42.640;23.380;2023-01-26T12:32:13;93785.34;;;2.22;86.09
11808;BME280;5961;42.640;23.380;2023-01-26T12:34:41;93777.28;;;2.19;86.76
11808;BME280;5961;42.640;23.380;2023-01-26T12:37:40;93769.41;;;2.19;87.03
11808;BME280;5961;42.640;23.380;2023-01-26T12:40:24;93758.94;;;2.19;87.14
11808;BME280;5961;42.640;23.380;2023-01-26T12:43:04;93763.59;;;2.22;86.51
11808;BME280;5961;42.640;23.380;2023-01-26T12:45:36;93769.41;;;2.19;87.38
11808;BME280;5961;42.640;23.380;2023-01-26T12:48:11;93764.75;;;2.16;87.62
11808;BME280;5961;42.640;23.380;2023-01-26T12:50:43;93756.53;;;2.04;88.60
11808;BME280;5961;42.640;23.380;2023-01-26T12:53:14;93761.22;;;2.07;88.49
11808;BME280;5961;42.640;23.380;2023-01-26T12:55:46;93744.66;;;1.93;89.78
11808;BME280;5961;42.640;23.380;2023-01-26T12:58:18;93753.72;;;1.82;90.06
11808;BME280;5961;42.640;23.380;2023-01-26T13:00:52;93742.28;;;1.78;91.11
11808;BME280;5961;42.640;23.380;2023-01-26T13:03:24;93751.19;;;1.77;91.24
11808;BME280;5961;42.640;23.380;2023-01-26T13:05:56;93734.28;;;1.69;91.64
11808;BME280;5961;42.640;23.380;2023-01-26T13:08:47;93746.03;;;1.72;91.51
11808;BME280;5961;42.640;23.380;2023-01-26T13:11:41;93751.75;;;1.74;92.10
11808;BME280;5961;42.640;23.380;2023-01-26T13:14:33;93750.41;;;1.76;92.21
11808;BME280;5961;42.640;23.380;2023-01-26T13:20:22;93745.94;;;1.77;92.98
11808;BME280;5961;42.640;23.380;2023-01-26T13:22:50;93730.88;;;1.69;92.89
11808;BME280;5961;42.640;23.380;2023-01-26T13:25:19;93747.00;;;1.76;92.73
11808;BME280;5961;42.640;23.380;2023-01-26T13:27:56;93727.00;;;1.66;92.93
11808;BME280;5961;42.640;23.380;2023-01-26T13:30:41;93700.28;;;1.45;93.56
11808;BME280;5961;42.640;23.380;2023-01-26T13:33:13;93727.03;;;1.61;93.86
11808;BME280;5961;42.640;23.380;2023-01-26T13:35:43;93720.44;;;1.63;93.71
11808;BME280;5961;42.640;23.380;2023-01-26T13:38:21;93698.22;;;1.42;94.07
11808;BME280;5961;42.640;23.380;2023-01-26T13:40:53;93720.66;;;1.67;93.65
11808;BME280;5961;42.640;23.380;2023-01-26T13:43:30;93714.66;;;1.66;93.42